sensor_id;sensor_type;location;lat;lon;timestamp;P1;durP1;ratioP1;P2;durP2;ratioP2
568;SDS011;269;48.884;9.192;2023-10-31T00:01:03;1.35;;;0.70;;
568;SDS011;269;48.884;9.192;2023-10-31T00:03:31;0.82;;;0.77;;
568;SDS011;269;48.884;9.192;2023-10-31T00:05:58;1.05;;;0.95;;
568;SDS011;269;48.884;9.192;2023-10-31T00:08:24;1.02;;;0.98;;
568;SDS011;269;48.884;9.192;2023-10-31T00:10:51;1.13;;;1.00;;
568;SDS011;269;48.884;9.192;2023-10-31T00:13:17;1.73;;;1.33;;
568;SDS011;269;48.884;9.192;2023-10-31T00:15:44;1.58;;;0.95;;
568;SDS011;269;48.884;9.192;2023-10-31T00:18:10;0.95;;;0.85;;
568;SDS011;269;48.884;9.192;2023-10-31T00:20:38;1.85;;;0.88;;
568;SDS011;269;48.884;9.192;2023-10-31T00:23:05;0.98;;;0.70;;
568;SDS011;269;48.884;9.192;2023-10-31T00:25:32;1.00;;;0.93;;
568;SDS011;269;48.884;9.192;2023-10-31T00:27:58;1.38;;;0.80;;
568;SDS011;269;48.884;9.192;2023-10-31T00:30:24;0.80;;;0.70;;
568;SDS011;269;48.884;9.192;2023-10-31T00:32:51;0.77;;;0.75;;
568;SDS011;269;48.884;9.192;2023-10-31T00:35:17;0.70;;;0.60;;
568;SDS011;269;48.884;9.192;2023-10-31T00:37:45;1.17;;;0.60;;
568;SDS011;269;48.884;9.192;2023-10-31T00:40:12;0.70;;;0.70;;
568;SDS011;269;48.884;9.192;2023-10-31T00:42:39;0.90;;;0.70;;
568;SDS011;269;48.884;9.192;2023-10-31T00:45:07;0.57;;;0.52;;
568;SDS011;269;48.884;9.192;2023-10-31T00:47:34;0.77;;;0.50;;
568;SDS011;269;48.884;9.192;2023-10-31T00:50:01;0.80;;;0.57;;
568;SDS011;269;48.884;9.192;2023-10-31T00:52:27;0.82;;;0.60;;
568;SDS011;269;48.884;9.192;2023-10-31T00:54:55;1.10;;;0.65;;
568;SDS011;269;48.884;9.192;2023-10-31T00:57:21;0.70;;;0.60;;
568;SDS011;269;48.884;9.192;2023-10-31T00:59:48;1.33;;;0.70;;
568;SDS011;269;48.884;9.192;2023-10-31T01:02:14;0.80;;;0.70;;
568;SDS011;269;48.884;9.192;2023-10-31T01:04:42;2.22;;;0.70;;
568;SDS011;269;48.884;9.192;2023-10-31T01:07:08;0.80;;;0.70;;
568;SDS011;269;48.884;9.192;2023-10-31T01:09:37;0.80;;;0.80;;
568;SDS011;269;48.884;9.192;2023-10-31T01:12:05;1.00;;;0.60;;
568;SDS011;269;48.884;9.192;2023-10-31T01:14:32;2.17;;;0.70;;
568;SDS011;269;48.884;9.192;2023-10-31T01:17:00;1.75;;;0.70;;
568;SDS011;269;48.884;9.192;2023-10-31T01:19:26;2.20;;;0.60;;
568;SDS011;269;48.884;9.192;2023-10-31T01:21:53;2.20;;;0.80;;
568;SDS011;269;48.884;9.192;2023-10-31T01:24:19;0.98;;;0.70;;
568;SDS011;269;48.884;9.192;2023-10-31T01:26:46;1.38;;;0.82;;
568;SDS011;269;48.884;9.192;2023-10-31T01:29:14;1.05;;;0.70;;
568;SDS011;269;48.884;9.192;2023-10-31T01:31:40;1.92;;;0.70;;
568;SDS011;269;48.884;9.192;2023-10-31T01:34:07;2.90;;;1.00;;
568;SDS011;269;48.884;9.192;2023-10-31T01:36:34;2.15;;;0.75;;
568;SDS011;269;48.884;9.192;2023-10-31T01:39:00;1.30;;;0.63;;
568;SDS011;269;48.884;9.192;2023-10-31T01:41:27;1.80;;;0.80;;
568;SDS011;269;48.884;9.192;2023-10-31T01:43:53;0.98;;;0.80;;
568;SDS011;269;48.884;9.192;2023-10-31T01:46:21;1.35;;;0.60;;
568;SDS011;269;48.884;9.192;2023-10-31T01:48:47;1.27;;;0.88;;
568;SDS011;269;48.884;9.192;2023-10-31T01:51:14;1.15;;;0.57;;
568;SDS011;269;48.884;9.192;2023-10-31T01:53:40;1.13;;;0.95;;
568;SDS011;269;48.884;9.192;2023-10-31T01:56:07;2.90;;;1.00;;
568;SDS011;269;48.884;9.192;2023-10-31T01:58:34;0.80;;;0.70;;
568;SDS011;269;48.884;9.192;2023-10-31T02:01:02;1.50;;;0.70;;
568;SDS011;269;48.884;9.192;2023-10-31T02:03:32;2.60;;;0.60;;
568;SDS011;269;48.884;9.192;2023-10-31T02:05:59;2.08;;;0.80;;
568;SDS011;269;48.884;9.192;2023-10-31T02:08:25;0.80;;;0.70;;
568;SDS011;269;48.884;9.192;2023-10-31T02:10:52;0.85;;;0.70;;
568;SDS011;269;48.884;9.192;2023-10-31T02:13:18;0.70;;;0.70;;
568;SDS011;269;48.884;9.192;2023-10-31T02:15:45;1.15;;;0.70;;
568;SDS011;269;48.884;9.192;2023-10-31T02:18:12;1.55;;;0.77;;
568;SDS011;269;48.884;9.192;2023-10-31T02:20:40;1.35;;;0.70;;
568;SDS011;269;48.884;9.192;2023-10-31T02:23:07;1.10;;;0.70;;
568;SDS011;269;48.884;9.192;2023-10-31T02:25:34;2.92;;;0.85;;
568;SDS011;269;48.884;9.192;2023-10-31T02:28:00;1.33;;;0.60;;
568;SDS011;269;48.884;9.192;2023-10-31T02:30:27;1.02;;;0.93;;
568;SDS011;269;48.884;9.192;2023-10-31T02:32:54;0.93;;;0.70;;
568;SDS011;269;48.884;9.192;2023-10-31T02:35:20;0.93;;;0.68;;
568;SDS011;269;48.884;9.192;2023-10-31T02:37:47;1.80;;;0.90;;
568;SDS011;269;48.884;9.192;2023-10-31T02:40:15;2.10;;;0.80;;
568;SDS011;269;48.884;9.192;2023-10-31T02:42:41;1.30;;;0.88;;
568;SDS011;269;48.884;9.192;2023-10-31T02:45:08;1.80;;;0.82;;
568;SDS011;269;48.884;9.192;2023-10-31T02:47:35;1.48;;;0.90;;
568;SDS011;269;48.884;9.192;2023-10-31T02:50:02;2.22;;;0.80;;
568;SDS011;269;48.884;9.192;2023-10-31T02:52:28;1.10;;;1.00;;
568;SDS011;269;48.884;9.192;2023-10-31T02:54:55;3.40;;;1.33;;
568;SDS011;269;48.884;9.192;2023-10-31T02:57:24;1.52;;;0.80;;
568;SDS011;269;48.884;9.192;2023-10-31T02:59:50;2.75;;;1.00;;
568;SDS011;269;48.884;9.192;2023-10-31T03:02:17;3.00;;;0.80;;
568;SDS011;269;48.884;9.192;2023-10-31T03:04:43;0.77;;;0.73;;
568;SDS011;269;48.884;9.192;2023-10-31T03:07:10;1.33;;;0.85;;
568;SDS011;269;48.884;9.192;2023-10-31T03:09:36;1.10;;;0.80;;
568;SDS011;269;48.884;9.192;2023-10-31T03:12:03;4.68;;;0.93;;
568;SDS011;269;48.884;9.192;2023-10-31T03:14:31;1.20;;;0.95;;
568;SDS011;269;48.884;9.192;2023-10-31T03:16:58;1.35;;;0.90;;
568;SDS011;269;48.884;9.192;2023-10-31T03:19:24;1.75;;;0.82;;
568;SDS011;269;48.884;9.192;2023-10-31T03:21:51;1.20;;;1.00;;
568;SDS011;269;48.884;9.192;2023-10-31T03:24:17;1.25;;;0.90;;
568;SDS011;269;48.884;9.192;2023-10-31T03:26:44;1.98;;;0.80;;
568;SDS011;269;48.884;9.192;2023-10-31T03:29:10;2.33;;;0.88;;
568;SDS011;269;48.884;9.192;2023-10-31T03:31:38;1.73;;;1.00;;
568;SDS011;269;48.884;9.192;2023-10-31T03:34:05;1.73;;;1.00;;
568;SDS011;269;48.884;9.192;2023-10-31T03:36:31;1.00;;;0.73;;
568;SDS011;269;48.884;9.192;2023-10-31T03:38:57;1.25;;;0.90;;
568;SDS011;269;48.884;9.192;2023-10-31T03:41:24;1.00;;;0.75;;
568;SDS011;269;48.884;9.192;2023-10-31T03:43:50;0.90;;;0.80;;
568;SDS011;269;48.884;9.192;2023-10-31T03:46:17;2.35;;;0.82;;
568;SDS011;269;48.884;9.192;2023-10-31T03:48:45;4.65;;;0.90;;
568;SDS011;269;48.884;9.192;2023-10-31T03:51:11;1.15;;;0.80;;
568;SDS011;269;48.884;9.192;2023-10-31T03:53:38;1.77;;;0.80;;
568;SDS011;269;48.884;9.192;2023-10-31T03:56:04;1.27;;;0.80;;
568;SDS011;269;48.884;9.192;2023-10-31T03:58:31;1.33;;;0.80;;
568;SDS011;269;48.884;9.192;2023-10-31T04:00:58;1.75;;;0.93;;
568;SDS011;269;48.884;9.192;2023-10-31T04:03:24;1.55;;;0.70;;
568;SDS011;269;48.884;9.192;2023-10-31T04:05:52;2.42;;;0.70;;
568;SDS011;269;48.884;9.192;2023-10-31T04:08:19;0.90;;;0.75;;
568;SDS011;269;48.884;9.192;2023-10-31T04:10:45;1.90;;;0.80;;
568;SDS011;269;48.884;9.192;2023-10-31T04:13:12;0.70;;;0.70;;
568;SDS011;269;48.884;9.192;2023-10-31T04:15:39;2.20;;;0.80;;
568;SDS011;269;48.884;9.192;2023-10-31T04:18:05;0.70;;;0.70;;
568;SDS011;269;48.884;9.192;2023-10-31T04:20:32;1.10;;;0.70;;
568;SDS011;269;48.884;9.192;2023-10-31T04:23:00;1.08;;;0.70;;
568;SDS011;269;48.884;9.192;2023-10-31T04:25:27;0.70;;;0.60;;
568;SDS011;269;48.884;9.192;2023-10-31T04:27:54;1.23;;;0.70;;
568;SDS011;269;48.884;9.192;2023-10-31T04:30:20;1.35;;;0.60;;
568;SDS011;269;48.884;9.192;2023-10-31T04:32:47;1.13;;;0.73;;
568;SDS011;269;48.884;9.192;2023-10-31T04:35:14;1.50;;;0.90;;
568;SDS011;269;48.884;9.192;2023-10-31T04:37:40;1.70;;;0.77;;
568;SDS011;269;48.884;9.192;2023-10-31T04:40:09;1.40;;;0.80;;
568;SDS011;269;48.884;9.192;2023-10-31T04:42:38;1.40;;;0.90;;
568;SDS011;269;48.884;9.192;2023-10-31T04:45:05;2.05;;;0.80;;
568;SDS011;269;48.884;9.192;2023-10-31T04:47:32;3.45;;;0.90;;
568;SDS011;269;48.884;9.192;2023-10-31T04:49:59;0.90;;;0.75;;
568;SDS011;269;48.884;9.192;2023-10-31T04:52:25;0.93;;;0.77;;
568;SDS011;269;48.884;9.192;2023-10-31T04:54:51;1.10;;;0.80;;
568;SDS011;269;48.884;9.192;2023-10-31T04:57:20;1.73;;;0.70;;
568;SDS011;269;48.884;9.192;2023-10-31T04:59:46;1.73;;;0.95;;
568;SDS011;269;48.884;9.192;2023-10-31T05:02:13;0.80;;;0.65;;
568;SDS011;269;48.884;9.192;2023-10-31T05:04:39;1.38;;;0.70;;
568;SDS011;269;48.884;9.192;2023-10-31T05:07:06;2.00;;;0.80;;
568;SDS011;269;48.884;9.192;2023-10-31T05:09:33;2.20;;;0.82;;
568;SDS011;269;48.884;9.192;2023-10-31T05:12:00;1.13;;;0.93;;
568;SDS011;269;48.884;9.192;2023-10-31T05:14:28;1.10;;;0.80;;
568;SDS011;269;48.884;9.192;2023-10-31T05:16:57;0.90;;;0.77;;
568;SDS011;269;48.884;9.192;2023-10-31T05:19:23;0.90;;;0.70;;
568;SDS011;269;48.884;9.192;2023-10-31T05:21:50;1.17;;;0.80;;
568;SDS011;269;48.884;9.192;2023-10-31T05:24:17;1.33;;;0.80;;
568;SDS011;269;48.884;9.192;2023-10-31T05:26:44;1.33;;;0.70;;
568;SDS011;269;48.884;9.192;2023-10-31T05:29:11;2.10;;;0.80;;
568;SDS011;269;48.884;9.192;2023-10-31T05:31:39;0.90;;;0.80;;
568;SDS011;269;48.884;9.192;2023-10-31T05:34:06;1.10;;;0.80;;
568;SDS011;269;48.884;9.192;2023-10-31T05:36:33;0.90;;;0.70;;
568;SDS011;269;48.884;9.192;2023-10-31T05:38:59;1.63;;;0.80;;
568;SDS011;269;48.884;9.192;2023-10-31T05:41:26;0.82;;;0.70;;
568;SDS011;269;48.884;9.192;2023-10-31T05:43:52;1.23;;;0.73;;
568;SDS011;269;48.884;9.192;2023-10-31T05:46:19;1.45;;;0.80;;
568;SDS011;269;48.884;9.192;2023-10-31T05:48:47;1.45;;;0.80;;
568;SDS011;269;48.884;9.192;2023-10-31T05:51:14;1.35;;;0.82;;
568;SDS011;269;48.884;9.192;2023-10-31T05:53:42;2.15;;;1.02;;
568;SDS011;269;48.884;9.192;2023-10-31T05:56:11;0.98;;;0.60;;
568;SDS011;269;48.884;9.192;2023-10-31T05:58:38;1.00;;;0.60;;
568;SDS011;269;48.884;9.192;2023-10-31T06:01:05;2.60;;;0.73;;
568;SDS011;269;48.884;9.192;2023-10-31T06:03:32;4.65;;;1.10;;
568;SDS011;269;48.884;9.192;2023-10-31T06:06:00;1.17;;;0.82;;
568;SDS011;269;48.884;9.192;2023-10-31T06:08:25;1.38;;;0.70;;
568;SDS011;269;48.884;9.192;2023-10-31T06:10:53;2.00;;;0.77;;
568;SDS011;269;48.884;9.192;2023-10-31T06:13:20;1.80;;;0.70;;
568;SDS011;269;48.884;9.192;2023-10-31T06:15:47;1.33;;;0.70;;
568;SDS011;269;48.884;9.192;2023-10-31T06:18:14;0.65;;;0.65;;
568;SDS011;269;48.884;9.192;2023-10-31T06:20:40;2.20;;;0.70;;
568;SDS011;269;48.884;9.192;2023-10-31T06:23:08;1.35;;;0.60;;
568;SDS011;269;48.884;9.192;2023-10-31T06:25:35;0.90;;;0.70;;
568;SDS011;269;48.884;9.192;2023-10-31T06:28:01;1.33;;;0.90;;
568;SDS011;269;48.884;9.192;2023-10-31T06:30:28;2.28;;;1.10;;
568;SDS011;269;48.884;9.192;2023-10-31T06:32:55;1.17;;;0.75;;
568;SDS011;269;48.884;9.192;2023-10-31T06:35:22;1.73;;;1.10;;
568;SDS011;269;48.884;9.192;2023-10-31T06:37:49;1.38;;;0.70;;
568;SDS011;269;48.884;9.192;2023-10-31T06:40:17;5.50;;;0.90;;
568;SDS011;269;48.884;9.192;2023-10-31T06:42:44;0.90;;;0.80;;
568;SDS011;269;48.884;9.192;2023-10-31T06:45:10;1.08;;;0.73;;
568;SDS011;269;48.884;9.192;2023-10-31T06:47:37;1.45;;;0.80;;
568;SDS011;269;48.884;9.192;2023-10-31T06:50:03;0.70;;;0.50;;
568;SDS011;269;48.884;9.192;2023-10-31T06:52:30;2.97;;;0.80;;
568;SDS011;269;48.884;9.192;2023-10-31T06:54:57;1.35;;;0.80;;
568;SDS011;269;48.884;9.192;2023-10-31T06:57:25;1.77;;;0.80;;
568;SDS011;269;48.884;9.192;2023-10-31T06:59:52;0.80;;;0.77;;
568;SDS011;269;48.884;9.192;2023-10-31T07:02:18;1.80;;;0.88;;
568;SDS011;269;48.884;9.192;2023-10-31T07:04:45;4.40;;;0.90;;
568;SDS011;269;48.884;9.192;2023-10-31T07:07:11;1.00;;;0.63;;
568;SDS011;269;48.884;9.192;2023-10-31T07:09:38;1.10;;;1.00;;
568;SDS011;269;48.884;9.192;2023-10-31T07:12:05;1.48;;;0.90;;
568;SDS011;269;48.884;9.192;2023-10-31T07:14:33;6.15;;;1.10;;
568;SDS011;269;48.884;9.192;2023-10-31T07:17:00;1.60;;;0.90;;
568;SDS011;269;48.884;9.192;2023-10-31T07:19:26;0.98;;;0.90;;
568;SDS011;269;48.884;9.192;2023-10-31T07:21:53;1.25;;;0.65;;
568;SDS011;269;48.884;9.192;2023-10-31T07:24:19;1.80;;;0.82;;
568;SDS011;269;48.884;9.192;2023-10-31T07:26:46;1.67;;;0.90;;
568;SDS011;269;48.884;9.192;2023-10-31T07:29:12;1.20;;;0.80;;
568;SDS011;269;48.884;9.192;2023-10-31T07:31:41;0.80;;;0.70;;
568;SDS011;269;48.884;9.192;2023-10-31T07:34:07;2.28;;;0.80;;
568;SDS011;269;48.884;9.192;2023-10-31T07:36:36;1.05;;;0.70;;
568;SDS011;269;48.884;9.192;2023-10-31T07:39:02;1.48;;;0.70;;
568;SDS011;269;48.884;9.192;2023-10-31T07:41:30;2.60;;;0.70;;
568;SDS011;269;48.884;9.192;2023-10-31T07:43:56;1.63;;;0.90;;
568;SDS011;269;48.884;9.192;2023-10-31T07:46:23;0.95;;;0.75;;
568;SDS011;269;48.884;9.192;2023-10-31T07:48:50;0.95;;;0.85;;
568;SDS011;269;48.884;9.192;2023-10-31T07:51:17;1.05;;;0.70;;
568;SDS011;269;48.884;9.192;2023-10-31T07:53:43;2.08;;;1.08;;
568;SDS011;269;48.884;9.192;2023-10-31T07:56:15;1.23;;;0.88;;
568;SDS011;269;48.884;9.192;2023-10-31T07:58:41;0.95;;;0.88;;
568;SDS011;269;48.884;9.192;2023-10-31T08:01:08;1.08;;;0.70;;
568;SDS011;269;48.884;9.192;2023-10-31T08:03:36;0.90;;;0.68;;
568;SDS011;269;48.884;9.192;2023-10-31T08:06:05;1.17;;;0.70;;
568;SDS011;269;48.884;9.192;2023-10-31T08:08:32;1.40;;;0.80;;
568;SDS011;269;48.884;9.192;2023-10-31T08:10:59;1.60;;;0.80;;
568;SDS011;269;48.884;9.192;2023-10-31T08:13:26;2.10;;;0.80;;
568;SDS011;269;48.884;9.192;2023-10-31T08:15:52;1.50;;;0.70;;
568;SDS011;269;48.884;9.192;2023-10-31T08:18:19;1.17;;;0.70;;
568;SDS011;269;48.884;9.192;2023-10-31T08:20:45;0.73;;;0.60;;
568;SDS011;269;48.884;9.192;2023-10-31T08:23:15;0.80;;;0.70;;
568;SDS011;269;48.884;9.192;2023-10-31T08:25:42;1.13;;;0.82;;
568;SDS011;269;48.884;9.192;2023-10-31T08:28:08;1.15;;;0.77;;
568;SDS011;269;48.884;9.192;2023-10-31T08:30:35;1.05;;;0.80;;
568;SDS011;269;48.884;9.192;2023-10-31T08:33:03;1.30;;;0.75;;
568;SDS011;269;48.884;9.192;2023-10-31T08:35:30;3.15;;;0.90;;
568;SDS011;269;48.884;9.192;2023-10-31T08:37:56;1.60;;;0.60;;
568;SDS011;269;48.884;9.192;2023-10-31T08:40:24;1.38;;;0.70;;
568;SDS011;269;48.884;9.192;2023-10-31T08:42:51;2.30;;;0.80;;
568;SDS011;269;48.884;9.192;2023-10-31T08:45:18;2.20;;;1.00;;
568;SDS011;269;48.884;9.192;2023-10-31T08:47:45;1.65;;;0.90;;
568;SDS011;269;48.884;9.192;2023-10-31T08:50:11;2.60;;;0.90;;
568;SDS011;269;48.884;9.192;2023-10-31T08:52:38;2.85;;;0.80;;
568;SDS011;269;48.884;9.192;2023-10-31T08:55:05;2.45;;;1.10;;
568;SDS011;269;48.884;9.192;2023-10-31T08:57:34;2.42;;;0.80;;
568;SDS011;269;48.884;9.192;2023-10-31T09:00:00;1.58;;;0.80;;
568;SDS011;269;48.884;9.192;2023-10-31T09:02:30;2.85;;;0.80;;
568;SDS011;269;48.884;9.192;2023-10-31T09:04:56;4.00;;;0.90;;
568;SDS011;269;48.884;9.192;2023-10-31T09:07:23;0.80;;;0.77;;
568;SDS011;269;48.884;9.192;2023-10-31T09:09:49;11.67;;;1.80;;
568;SDS011;269;48.884;9.192;2023-10-31T09:12:15;1.40;;;0.80;;
568;SDS011;269;48.884;9.192;2023-10-31T09:14:43;2.17;;;0.90;;
568;SDS011;269;48.884;9.192;2023-10-31T09:17:10;1.43;;;0.80;;
568;SDS011;269;48.884;9.192;2023-10-31T09:19:37;3.97;;;1.10;;
568;SDS011;269;48.884;9.192;2023-10-31T09:22:03;1.90;;;0.97;;
568;SDS011;269;48.884;9.192;2023-10-31T09:24:30;2.23;;;1.13;;
568;SDS011;269;48.884;9.192;2023-10-31T09:26:56;2.20;;;1.00;;
568;SDS011;269;48.884;9.192;2023-10-31T09:29:23;1.73;;;1.10;;
568;SDS011;269;48.884;9.192;2023-10-31T09:31:51;2.57;;;1.30;;
568;SDS011;269;48.884;9.192;2023-10-31T09:34:17;3.23;;;0.80;;
568;SDS011;269;48.884;9.192;2023-10-31T09:36:44;1.10;;;0.90;;
568;SDS011;269;48.884;9.192;2023-10-31T09:39:10;1.93;;;0.80;;
568;SDS011;269;48.884;9.192;2023-10-31T09:41:37;2.80;;;1.20;;
568;SDS011;269;48.884;9.192;2023-10-31T09:44:04;1.33;;;0.80;;
568;SDS011;269;48.884;9.192;2023-10-31T09:46:31;2.20;;;1.13;;
568;SDS011;269;48.884;9.192;2023-10-31T09:48:58;1.77;;;1.00;;
568;SDS011;269;48.884;9.192;2023-10-31T09:51:25;2.57;;;1.07;;
568;SDS011;269;48.884;9.192;2023-10-31T09:53:53;3.70;;;1.10;;
568;SDS011;269;48.884;9.192;2023-10-31T09:56:20;3.67;;;0.83;;
568;SDS011;269;48.884;9.192;2023-10-31T09:58:47;1.83;;;1.10;;
568;SDS011;269;48.884;9.192;2023-10-31T10:01:14;5.00;;;1.08;;
568;SDS011;269;48.884;9.192;2023-10-31T10:03:41;2.88;;;1.10;;
568;SDS011;269;48.884;9.192;2023-10-31T10:06:09;1.60;;;1.00;;
568;SDS011;269;48.884;9.192;2023-10-31T10:08:36;3.80;;;0.90;;
568;SDS011;269;48.884;9.192;2023-10-31T10:11:03;2.35;;;1.10;;
568;SDS011;269;48.884;9.192;2023-10-31T10:13:30;1.73;;;1.03;;
568;SDS011;269;48.884;9.192;2023-10-31T10:15:57;4.43;;;1.00;;
568;SDS011;269;48.884;9.192;2023-10-31T10:18:24;3.80;;;1.60;;
568;SDS011;269;48.884;9.192;2023-10-31T10:20:53;2.70;;;1.00;;
568;SDS011;269;48.884;9.192;2023-10-31T10:23:22;2.00;;;0.93;;
568;SDS011;269;48.884;9.192;2023-10-31T10:25:49;2.60;;;0.80;;
568;SDS011;269;48.884;9.192;2023-10-31T10:28:16;4.37;;;1.50;;
568;SDS011;269;48.884;9.192;2023-10-31T10:30:44;9.83;;;2.17;;
568;SDS011;269;48.884;9.192;2023-10-31T10:33:11;1.70;;;1.20;;
568;SDS011;269;48.884;9.192;2023-10-31T10:35:37;2.67;;;1.10;;
568;SDS011;269;48.884;9.192;2023-10-31T10:38:04;3.07;;;0.90;;
568;SDS011;269;48.884;9.192;2023-10-31T10:40:37;2.80;;;1.30;;
568;SDS011;269;48.884;9.192;2023-10-31T10:43:06;2.93;;;1.00;;
568;SDS011;269;48.884;9.192;2023-10-31T10:45:34;2.73;;;1.30;;
568;SDS011;269;48.884;9.192;2023-10-31T10:48:03;2.40;;;1.00;;
568;SDS011;269;48.884;9.192;2023-10-31T10:50:31;3.43;;;0.90;;
568;SDS011;269;48.884;9.192;2023-10-31T10:53:07;4.00;;;1.03;;
568;SDS011;269;48.884;9.192;2023-10-31T10:55:43;2.30;;;1.20;;
568;SDS011;269;48.884;9.192;2023-10-31T10:58:12;3.83;;;1.30;;
568;SDS011;269;48.884;9.192;2023-10-31T11:00:43;5.10;;;1.33;;
568;SDS011;269;48.884;9.192;2023-10-31T11:03:10;2.30;;;0.97;;
568;SDS011;269;48.884;9.192;2023-10-31T11:05:36;3.00;;;0.93;;
568;SDS011;269;48.884;9.192;2023-10-31T11:08:03;1.57;;;0.80;;
568;SDS011;269;48.884;9.192;2023-10-31T11:10:30;0.80;;;0.70;;
568;SDS011;269;48.884;9.192;2023-10-31T11:12:59;2.13;;;0.83;;
568;SDS011;269;48.884;9.192;2023-10-31T11:15:25;1.13;;;0.70;;
568;SDS011;269;48.884;9.192;2023-10-31T11:17:52;3.00;;;1.10;;
568;SDS011;269;48.884;9.192;2023-10-31T11:20:19;2.37;;;1.00;;
568;SDS011;269;48.884;9.192;2023-10-31T11:22:46;1.53;;;0.80;;
568;SDS011;269;48.884;9.192;2023-10-31T11:25:17;2.53;;;0.90;;
568;SDS011;269;48.884;9.192;2023-10-31T11:27:45;1.35;;;0.75;;
568;SDS011;269;48.884;9.192;2023-10-31T11:30:21;1.47;;;0.80;;
568;SDS011;269;48.884;9.192;2023-10-31T11:32:49;1.00;;;0.60;;
568;SDS011;269;48.884;9.192;2023-10-31T11:35:16;1.87;;;1.10;;
568;SDS011;269;48.884;9.192;2023-10-31T11:37:42;2.10;;;0.90;;
568;SDS011;269;48.884;9.192;2023-10-31T11:40:19;1.00;;;0.68;;
568;SDS011;269;48.884;9.192;2023-10-31T11:42:48;1.80;;;0.80;;
568;SDS011;269;48.884;9.192;2023-10-31T11:45:31;1.60;;;0.98;;
568;SDS011;269;48.884;9.192;2023-10-31T11:48:00;2.27;;;0.90;;
568;SDS011;269;48.884;9.192;2023-10-31T11:50:27;2.67;;;0.80;;
568;SDS011;269;48.884;9.192;2023-10-31T11:53:00;1.37;;;0.93;;
568;SDS011;269;48.884;9.192;2023-10-31T11:55:29;1.53;;;0.70;;
568;SDS011;269;48.884;9.192;2023-10-31T11:57:58;1.90;;;0.87;;
568;SDS011;269;48.884;9.192;2023-10-31T12:00:25;2.20;;;1.00;;
568;SDS011;269;48.884;9.192;2023-10-31T12:03:00;1.30;;;0.90;;
568;SDS011;269;48.884;9.192;2023-10-31T12:05:27;1.70;;;0.90;;
568;SDS011;269;48.884;9.192;2023-10-31T12:07:55;0.87;;;0.60;;
568;SDS011;269;48.884;9.192;2023-10-31T12:10:22;1.13;;;0.83;;
568;SDS011;269;48.884;9.192;2023-10-31T12:12:50;1.83;;;0.90;;
568;SDS011;269;48.884;9.192;2023-10-31T12:15:16;0.97;;;0.70;;
568;SDS011;269;48.884;9.192;2023-10-31T12:17:43;1.33;;;1.13;;
568;SDS011;269;48.884;9.192;2023-10-31T12:20:11;1.30;;;0.80;;
568;SDS011;269;48.884;9.192;2023-10-31T12:22:38;0.90;;;0.70;;
568;SDS011;269;48.884;9.192;2023-10-31T12:25:06;1.37;;;0.70;;
568;SDS011;269;48.884;9.192;2023-10-31T12:27:42;1.10;;;0.80;;
568;SDS011;269;48.884;9.192;2023-10-31T12:30:10;2.03;;;0.97;;
568;SDS011;269;48.884;9.192;2023-10-31T12:32:37;2.60;;;1.60;;
568;SDS011;269;48.884;9.192;2023-10-31T12:35:04;3.77;;;2.00;;
568;SDS011;269;48.884;9.192;2023-10-31T12:37:32;2.33;;;2.13;;
568;SDS011;269;48.884;9.192;2023-10-31T12:39:59;3.13;;;2.83;;
568;SDS011;269;48.884;9.192;2023-10-31T12:42:29;2.80;;;2.60;;
568;SDS011;269;48.884;9.192;2023-10-31T12:44:56;4.50;;;3.10;;
568;SDS011;269;48.884;9.192;2023-10-31T12:47:24;2.80;;;2.50;;
568;SDS011;269;48.884;9.192;2023-10-31T12:50:04;3.23;;;2.87;;
568;SDS011;269;48.884;9.192;2023-10-31T12:52:46;3.13;;;2.83;;
568;SDS011;269;48.884;9.192;2023-10-31T12:55:13;3.43;;;2.67;;
568;SDS011;269;48.884;9.192;2023-10-31T12:57:40;3.50;;;2.90;;
568;SDS011;269;48.884;9.192;2023-10-31T13:00:07;2.90;;;2.40;;
568;SDS011;269;48.884;9.192;2023-10-31T13:02:37;3.80;;;2.90;;
568;SDS011;269;48.884;9.192;2023-10-31T13:05:08;3.73;;;3.13;;
568;SDS011;269;48.884;9.192;2023-10-31T13:07:35;3.83;;;3.30;;
568;SDS011;269;48.884;9.192;2023-10-31T13:10:05;4.03;;;3.40;;
568;SDS011;269;48.884;9.192;2023-10-31T13:12:32;3.33;;;3.03;;
568;SDS011;269;48.884;9.192;2023-10-31T13:14:59;3.70;;;2.90;;
568;SDS011;269;48.884;9.192;2023-10-31T13:17:26;4.63;;;3.07;;
568;SDS011;269;48.884;9.192;2023-10-31T13:19:52;4.53;;;3.20;;
568;SDS011;269;48.884;9.192;2023-10-31T13:22:19;3.13;;;2.70;;
568;SDS011;269;48.884;9.192;2023-10-31T13:24:45;2.30;;;2.10;;
568;SDS011;269;48.884;9.192;2023-10-31T13:27:13;3.97;;;2.43;;
568;SDS011;269;48.884;9.192;2023-10-31T13:29:41;4.67;;;2.53;;
568;SDS011;269;48.884;9.192;2023-10-31T13:32:08;2.50;;;2.30;;
568;SDS011;269;48.884;9.192;2023-10-31T13:34:34;5.90;;;3.30;;
568;SDS011;269;48.884;9.192;2023-10-31T13:37:01;6.00;;;3.57;;
568;SDS011;269;48.884;9.192;2023-10-31T13:39:28;4.00;;;2.30;;
568;SDS011;269;48.884;9.192;2023-10-31T13:41:55;3.33;;;1.70;;
568;SDS011;269;48.884;9.192;2023-10-31T13:44:23;2.83;;;1.33;;
568;SDS011;269;48.884;9.192;2023-10-31T13:46:49;1.60;;;1.10;;
568;SDS011;269;48.884;9.192;2023-10-31T13:49:15;1.50;;;1.00;;
568;SDS011;269;48.884;9.192;2023-10-31T13:51:42;1.30;;;0.90;;
568;SDS011;269;48.884;9.192;2023-10-31T13:54:09;2.80;;;1.30;;
568;SDS011;269;48.884;9.192;2023-10-31T13:56:35;2.00;;;1.17;;
568;SDS011;269;48.884;9.192;2023-10-31T13:59:02;2.20;;;1.10;;
568;SDS011;269;48.884;9.192;2023-10-31T14:01:30;1.27;;;0.70;;
568;SDS011;269;48.884;9.192;2023-10-31T14:03:56;2.55;;;1.08;;
568;SDS011;269;48.884;9.192;2023-10-31T14:06:23;2.20;;;1.10;;
568;SDS011;269;48.884;9.192;2023-10-31T14:08:54;3.27;;;1.00;;
568;SDS011;269;48.884;9.192;2023-10-31T14:11:21;1.40;;;1.00;;
568;SDS011;269;48.884;9.192;2023-10-31T14:13:48;2.20;;;1.00;;
568;SDS011;269;48.884;9.192;2023-10-31T14:16:15;0.80;;;0.70;;
568;SDS011;269;48.884;9.192;2023-10-31T14:18:43;2.73;;;0.80;;
568;SDS011;269;48.884;9.192;2023-10-31T14:21:11;1.37;;;0.90;;
568;SDS011;269;48.884;9.192;2023-10-31T14:23:38;0.70;;;0.60;;
568;SDS011;269;48.884;9.192;2023-10-31T14:26:04;1.40;;;0.70;;
568;SDS011;269;48.884;9.192;2023-10-31T14:28:31;1.40;;;0.73;;
568;SDS011;269;48.884;9.192;2023-10-31T14:30:57;1.13;;;0.70;;
568;SDS011;269;48.884;9.192;2023-10-31T14:33:24;1.77;;;0.70;;
568;SDS011;269;48.884;9.192;2023-10-31T14:35:51;2.17;;;1.40;;
568;SDS011;269;48.884;9.192;2023-10-31T14:38:18;1.63;;;0.90;;
568;SDS011;269;48.884;9.192;2023-10-31T14:40:44;1.50;;;0.87;;
568;SDS011;269;48.884;9.192;2023-10-31T14:43:11;0.70;;;0.60;;
568;SDS011;269;48.884;9.192;2023-10-31T14:45:43;1.47;;;0.80;;
568;SDS011;269;48.884;9.192;2023-10-31T14:48:10;0.80;;;0.80;;
568;SDS011;269;48.884;9.192;2023-10-31T14:50:36;1.07;;;0.70;;
568;SDS011;269;48.884;9.192;2023-10-31T14:53:05;1.37;;;0.73;;
568;SDS011;269;48.884;9.192;2023-10-31T14:55:32;1.47;;;0.80;;
568;SDS011;269;48.884;9.192;2023-10-31T14:57:58;1.87;;;1.00;;
568;SDS011;269;48.884;9.192;2023-10-31T15:00:25;1.40;;;0.80;;
568;SDS011;269;48.884;9.192;2023-10-31T15:02:52;1.30;;;0.80;;
568;SDS011;269;48.884;9.192;2023-10-31T15:05:18;1.40;;;1.00;;
568;SDS011;269;48.884;9.192;2023-10-31T15:07:45;1.47;;;0.80;;
568;SDS011;269;48.884;9.192;2023-10-31T15:10:13;1.90;;;0.60;;
568;SDS011;269;48.884;9.192;2023-10-31T15:12:39;0.70;;;0.70;;
568;SDS011;269;48.884;9.192;2023-10-31T15:15:06;0.80;;;0.60;;
568;SDS011;269;48.884;9.192;2023-10-31T15:17:33;1.67;;;0.90;;
568;SDS011;269;48.884;9.192;2023-10-31T15:20:00;1.20;;;0.60;;
568;SDS011;269;48.884;9.192;2023-10-31T15:22:27;0.97;;;0.70;;
568;SDS011;269;48.884;9.192;2023-10-31T15:24:53;1.27;;;1.10;;
568;SDS011;269;48.884;9.192;2023-10-31T15:27:21;3.97;;;1.38;;
568;SDS011;269;48.884;9.192;2023-10-31T15:29:48;1.92;;;1.10;;
568;SDS011;269;48.884;9.192;2023-10-31T15:32:15;1.10;;;0.70;;
568;SDS011;269;48.884;9.192;2023-10-31T15:34:41;1.95;;;0.82;;
568;SDS011;269;48.884;9.192;2023-10-31T15:37:08;2.50;;;1.20;;
568;SDS011;269;48.884;9.192;2023-10-31T15:39:36;2.58;;;1.10;;
568;SDS011;269;48.884;9.192;2023-10-31T15:42:03;1.08;;;0.98;;
568;SDS011;269;48.884;9.192;2023-10-31T15:44:32;1.60;;;0.93;;